sensor_id;sensor_type;location;lat;lon;timestamp;pressure;altitude;pressure_sealevel;temperature;humidity
19510;BME280;9896;42.486;26.506;2022-07-21T00:02:05;99846.03;;;19.65;52.02
19510;BME280;9896;42.486;26.506;2022-07-21T00:04:30;99847.13;;;19.64;52.41
19510;BME280;9896;42.486;26.506;2022-07-21T00:06:56;99840.63;;;19.70;52.33
19510;BME280;9896;42.486;26.506;2022-07-21T00:09:21;99846.03;;;19.60;52.77
19510;BME280;9896;42.486;26.506;2022-07-21T00:11:47;99833.78;;;19.63;52.56
19510;BME280;9896;42.486;26.506;2022-07-21T00:14:13;99825.63;;;19.63;52.25
19510;BME280;9896;42.486;26.506;2022-07-21T00:16:40;99838.16;;;19.69;52.27
19510;BME280;9896;42.486;26.506;2022-07-21T00:19:06;99829.97;;;19.69;52.10
19510;BME280;9896;42.486;26.506;2022-07-21T00:21:31;99828.94;;;19.85;51.44
19510;BME280;9896;42.486;26.506;2022-07-21T00:23:57;99834.16;;;19.91;51.27
19510;BME280;9896;42.486;26.506;2022-07-21T00:26:23;99830.06;;;19.94;51.58
19510;BME280;9896;42.486;26.506;2022-07-21T00:28:48;99825.44;;;19.94;51.47
19510;BME280;9896;42.486;26.506;2022-07-21T00:31:14;99827.06;;;19.80;51.70
19510;BME280;9896;42.486;26.506;2022-07-21T00:33:40;99831.88;;;19.63;52.25
19510;BME280;9896;42.486;26.506;2022-07-21T00:36:06;99822.59;;;19.44;53.13
19510;BME280;9896;42.486;26.506;2022-07-21T00:38:31;99826.56;;;19.36;53.38
19510;BME280;9896;42.486;26.506;2022-07-21T00:40:57;99814.13;;;19.45;53.17
19510;BME280;9896;42.486;26.506;2022-07-21T00:43:22;99815.38;;;19.28;53.99
19510;BME280;9896;42.486;26.506;2022-07-21T00:45:48;99823.25;;;19.19;53.94
19510;BME280;9896;42.486;26.506;2022-07-21T00:48:17;99809.25;;;18.95;54.60
19510;BME280;9896;42.486;26.506;2022-07-21T00:50:42;99816.00;;;18.83;55.18
19510;BME280;9896;42.486;26.506;2022-07-21T00:53:08;99817.84;;;18.77;55.38
19510;BME280;9896;42.486;26.506;2022-07-21T00:55:33;99806.31;;;18.60;56.16
19510;BME280;9896;42.486;26.506;2022-07-21T00:57:59;99811.66;;;18.87;55.76
19510;BME280;9896;42.486;26.506;2022-07-21T01:00:27;99811.97;;;18.53;56.63
19510;BME280;9896;42.486;26.506;2022-07-21T01:02:54;99797.91;;;18.62;56.48
19510;BME280;9896;42.486;26.506;2022-07-21T01:05:21;99801.13;;;18.58;56.94
19510;BME280;9896;42.486;26.506;2022-07-21T01:07:50;99801.19;;;18.32;57.42
19510;BME280;9896;42.486;26.506;2022-07-21T01:10:21;99798.34;;;18.17;58.22
19510;BME280;9896;42.486;26.506;2022-07-21T01:12:47;99803.81;;;18.22;58.32
19510;BME280;9896;42.486;26.506;2022-07-21T01:15:14;99807.13;;;18.29;57.96
19510;BME280;9896;42.486;26.506;2022-07-21T01:17:41;99806.44;;;18.11;58.25
19510;BME280;9896;42.486;26.506;2022-07-21T01:20:10;99802.34;;;18.09;57.82
19510;BME280;9896;42.486;26.506;2022-07-21T01:22:38;99797.31;;;18.23;57.40
19510;BME280;9896;42.486;26.506;2022-07-21T01:25:05;99788.53;;;17.84;59.59
19510;BME280;9896;42.486;26.506;2022-07-21T01:27:31;99799.53;;;17.99;59.39
19510;BME280;9896;42.486;26.506;2022-07-21T01:29:57;99797.38;;;17.74;60.70
19510;BME280;9896;42.486;26.506;2022-07-21T01:32:23;99784.28;;;17.44;60.92
19510;BME280;9896;42.486;26.506;2022-07-21T01:34:49;99779.50;;;17.51;60.64
19510;BME280;9896;42.486;26.506;2022-07-21T01:37:20;99772.50;;;17.55;60.57
19510;BME280;9896;42.486;26.506;2022-07-21T01:39:47;99773.00;;;17.52;60.77
19510;BME280;9896;42.486;26.506;2022-07-21T01:42:31;99773.81;;;17.53;61.19
19510;BME280;9896;42.486;26.506;2022-07-21T01:44:57;99774.50;;;17.65;61.04
19510;BME280;9896;42.486;26.506;2022-07-21T01:47:23;99778.56;;;17.62;60.46
19510;BME280;9896;42.486;26.506;2022-07-21T01:49:49;99778.34;;;17.96;59.07
19510;BME280;9896;42.486;26.506;2022-07-21T01:52:15;99783.13;;;17.84;59.29
19510;BME280;9896;42.486;26.506;2022-07-21T01:54:41;99778.34;;;17.96;58.35
19510;BME280;9896;42.486;26.506;2022-07-21T01:57:24;99770.75;;;17.93;58.40
19510;BME280;9896;42.486;26.506;2022-07-21T01:59:51;99768.44;;;17.80;58.40
19510;BME280;9896;42.486;26.506;2022-07-21T02:02:17;99775.72;;;17.52;59.17
19510;BME280;9896;42.486;26.506;2022-07-21T02:04:47;99767.66;;;17.57;59.04
19510;BME280;9896;42.486;26.506;2022-07-21T02:07:13;99773.56;;;17.54;59.20
19510;BME280;9896;42.486;26.506;2022-07-21T02:09:40;99761.53;;;17.45;59.28
19510;BME280;9896;42.486;26.506;2022-07-21T02:12:06;99766.00;;;17.56;59.13
19510;BME280;9896;42.486;26.506;2022-07-21T02:14:32;99765.94;;;17.51;59.27
19510;BME280;9896;42.486;26.506;2022-07-21T02:16:58;99771.66;;;17.55;59.33
19510;BME280;9896;42.486;26.506;2022-07-21T02:19:23;99765.50;;;17.38;60.18
19510;BME280;9896;42.486;26.506;2022-07-21T02:21:49;99773.56;;;17.33;60.34
19510;BME280;9896;42.486;26.506;2022-07-21T02:24:14;99772.09;;;16.98;61.52
19510;BME280;9896;42.486;26.506;2022-07-21T02:26:40;99773.22;;;17.02;61.63
19510;BME280;9896;42.486;26.506;2022-07-21T02:29:06;99759.75;;;17.07;61.50
19510;BME280;9896;42.486;26.506;2022-07-21T02:31:31;99764.38;;;17.34;60.32
19510;BME280;9896;42.486;26.506;2022-07-21T02:33:57;99768.28;;;17.43;59.96
19510;BME280;9896;42.486;26.506;2022-07-21T02:36:22;99767.84;;;17.29;60.46
19510;BME280;9896;42.486;26.506;2022-07-21T02:38:48;99765.75;;;17.36;60.25
19510;BME280;9896;42.486;26.506;2022-07-21T02:41:15;99762.59;;;17.44;59.67
19510;BME280;9896;42.486;26.506;2022-07-21T02:43:41;99756.09;;;17.18;60.74
19510;BME280;9896;42.486;26.506;2022-07-21T02:46:06;99762.44;;;17.29;60.24
19510;BME280;9896;42.486;26.506;2022-07-21T02:48:32;99757.16;;;17.17;60.48
19510;BME280;9896;42.486;26.506;2022-07-21T02:50:57;99757.53;;;17.26;60.03
19510;BME280;9896;42.486;26.506;2022-07-21T02:53:23;99753.38;;;17.18;60.14
19510;BME280;9896;42.486;26.506;2022-07-21T02:55:50;99753.16;;;17.25;60.33
19510;BME280;9896;42.486;26.506;2022-07-21T02:58:20;99754.59;;;17.33;59.95
19510;BME280;9896;42.486;26.506;2022-07-21T03:01:02;99749.75;;;17.35;59.38
19510;BME280;9896;42.486;26.506;2022-07-21T03:03:30;99749.69;;;17.08;60.25
19510;BME280;9896;42.486;26.506;2022-07-21T03:05:56;99750.97;;;17.22;60.05
19510;BME280;9896;42.486;26.506;2022-07-21T03:08:23;99752.34;;;17.25;59.89
19510;BME280;9896;42.486;26.506;2022-07-21T03:10:49;99741.72;;;17.18;60.30
19510;BME280;9896;42.486;26.506;2022-07-21T03:13:15;99749.25;;;17.16;60.20
19510;BME280;9896;42.486;26.506;2022-07-21T03:15:41;99745.09;;;17.08;60.46
19510;BME280;9896;42.486;26.506;2022-07-21T03:18:07;99735.97;;;17.14;60.45
19510;BME280;9896;42.486;26.506;2022-07-21T03:20:36;99742.22;;;17.15;60.54
19510;BME280;9896;42.486;26.506;2022-07-21T03:23:02;99736.28;;;17.18;60.64
19510;BME280;9896;42.486;26.506;2022-07-21T03:25:28;99733.78;;;17.11;60.73
19510;BME280;9896;42.486;26.506;2022-07-21T03:27:54;99732.72;;;16.91;61.09
19510;BME280;9896;42.486;26.506;2022-07-21T03:30:20;99743.25;;;16.87;61.48
19510;BME280;9896;42.486;26.506;2022-07-21T03:32:47;99742.84;;;16.79;61.72
19510;BME280;9896;42.486;26.506;2022-07-21T03:35:13;99734.72;;;16.79;61.70
19510;BME280;9896;42.486;26.506;2022-07-21T03:37:52;99738.34;;;16.67;62.10
19510;BME280;9896;42.486;26.506;2022-07-21T03:40:20;99734.59;;;16.90;61.66
19510;BME280;9896;42.486;26.506;2022-07-21T03:42:51;99739.31;;;17.00;61.50
19510;BME280;9896;42.486;26.506;2022-07-21T03:45:18;99732.75;;;16.96;61.32
19510;BME280;9896;42.486;26.506;2022-07-21T03:47:44;99731.91;;;16.90;61.55
19510;BME280;9896;42.486;26.506;2022-07-21T03:50:09;99744.88;;;17.10;61.01
19510;BME280;9896;42.486;26.506;2022-07-21T03:52:37;99734.22;;;17.03;61.32
19510;BME280;9896;42.486;26.506;2022-07-21T03:55:03;99740.50;;;17.09;61.08
19510;BME280;9896;42.486;26.506;2022-07-21T04:00:04;99733.81;;;17.38;60.19
19510;BME280;9896;42.486;26.506;2022-07-21T04:02:30;99742.31;;;17.25;60.55
19510;BME280;9896;42.486;26.506;2022-07-21T04:04:56;99744.34;;;17.35;60.84
19510;BME280;9896;42.486;26.506;2022-07-21T04:07:21;99743.97;;;17.26;60.81
19510;BME280;9896;42.486;26.506;2022-07-21T04:09:47;99751.44;;;17.41;60.65
19510;BME280;9896;42.486;26.506;2022-07-21T04:12:12;99742.00;;;17.43;60.55
19510;BME280;9896;42.486;26.506;2022-07-21T04:14:38;99743.75;;;17.33;60.83
19510;BME280;9896;42.486;26.506;2022-07-21T04:17:03;99751.97;;;17.38;60.88
19510;BME280;9896;42.486;26.506;2022-07-21T04:19:29;99738.09;;;17.34;61.38
19510;BME280;9896;42.486;26.506;2022-07-21T04:21:54;99740.44;;;17.26;61.84
19510;BME280;9896;42.486;26.506;2022-07-21T04:24:20;99743.81;;;17.38;61.39
19510;BME280;9896;42.486;26.506;2022-07-21T04:26:45;99738.72;;;17.41;61.35
19510;BME280;9896;42.486;26.506;2022-07-21T04:29:10;99733.88;;;17.43;61.10
19510;BME280;9896;42.486;26.506;2022-07-21T04:31:36;99737.81;;;17.57;61.00
19510;BME280;9896;42.486;26.506;2022-07-21T04:34:01;99740.72;;;17.51;61.26
19510;BME280;9896;42.486;26.506;2022-07-21T04:36:27;99738.00;;;17.51;61.49
19510;BME280;9896;42.486;26.506;2022-07-21T04:38:52;99739.69;;;17.57;61.92
19510;BME280;9896;42.486;26.506;2022-07-21T04:41:18;99743.19;;;17.52;61.70
19510;BME280;9896;42.486;26.506;2022-07-21T04:43:43;99739.47;;;17.58;61.91
19510;BME280;9896;42.486;26.506;2022-07-21T04:46:09;99744.22;;;17.73;61.50
19510;BME280;9896;42.486;26.506;2022-07-21T04:48:34;99742.13;;;18.12;60.30
19510;BME280;9896;42.486;26.506;2022-07-21T04:51:00;99733.78;;;18.55;59.08
19510;BME280;9896;42.486;26.506;2022-07-21T04:53:25;99738.13;;;18.56;58.96
19510;BME280;9896;42.486;26.506;2022-07-21T04:55:51;99740.09;;;18.66;58.44
19510;BME280;9896;42.486;26.506;2022-07-21T04:58:16;99737.81;;;18.16;60.30
19510;BME280;9896;42.486;26.506;2022-07-21T05:00:42;99731.03;;;18.14;60.24
19510;BME280;9896;42.486;26.506;2022-07-21T05:03:07;99736.59;;;18.34;59.66
19510;BME280;9896;42.486;26.506;2022-07-21T05:05:33;99733.56;;;18.25;60.16
19510;BME280;9896;42.486;26.506;2022-07-21T05:07:58;99731.28;;;18.49;59.58
19510;BME280;9896;42.486;26.506;2022-07-21T05:10:24;99732.94;;;19.02;57.88
19510;BME280;9896;42.486;26.506;2022-07-21T05:12:50;99724.34;;;19.30;57.22
19510;BME280;9896;42.486;26.506;2022-07-21T05:15:15;99730.44;;;19.68;56.24
19510;BME280;9896;42.486;26.506;2022-07-21T05:17:43;99728.91;;;19.15;57.40
19510;BME280;9896;42.486;26.506;2022-07-21T05:20:10;99731.84;;;19.08;57.87
19510;BME280;9896;42.486;26.506;2022-07-21T05:22:36;99735.97;;;19.16;57.93
19510;BME280;9896;42.486;26.506;2022-07-21T05:25:02;99736.00;;;19.26;57.87
19510;BME280;9896;42.486;26.506;2022-07-21T05:27:28;99730.69;;;19.56;56.89
19510;BME280;9896;42.486;26.506;2022-07-21T05:29:54;99732.09;;;20.24;55.11
19510;BME280;9896;42.486;26.506;2022-07-21T05:32:20;99727.94;;;20.72;53.29
19510;BME280;9896;42.486;26.506;2022-07-21T05:34:45;99724.19;;;20.18;54.85
19510;BME280;9896;42.486;26.506;2022-07-21T05:37:11;99742.44;;;20.17;54.83
19510;BME280;9896;42.486;26.506;2022-07-21T05:39:36;99748.16;;;20.21;55.13
19510;BME280;9896;42.486;26.506;2022-07-21T05:42:02;99740.53;;;20.38;54.88
19510;BME280;9896;42.486;26.506;2022-07-21T05:44:27;99744.06;;;20.44;54.62
19510;BME280;9896;42.486;26.506;2022-07-21T05:46:53;99739.97;;;20.61;54.62
19510;BME280;9896;42.486;26.506;2022-07-21T05:49:18;99736.41;;;20.61;54.39
19510;BME280;9896;42.486;26.506;2022-07-21T05:51:44;99734.91;;;21.04;52.95
19510;BME280;9896;42.486;26.506;2022-07-21T05:54:09;99733.28;;;21.03;53.95
19510;BME280;9896;42.486;26.506;2022-07-21T05:56:35;99743.03;;;21.24;53.49
19510;BME280;9896;42.486;26.506;2022-07-21T05:59:00;99733.78;;;21.20;53.50
19510;BME280;9896;42.486;26.506;2022-07-21T06:01:26;99726.59;;;21.39;52.83
19510;BME280;9896;42.486;26.506;2022-07-21T06:03:51;99724.22;;;21.71;52.40
19510;BME280;9896;42.486;26.506;2022-07-21T06:06:19;99734.16;;;21.91;52.33
19510;BME280;9896;42.486;26.506;2022-07-21T06:08:46;99732.22;;;22.31;51.24
19510;BME280;9896;42.486;26.506;2022-07-21T06:11:15;99734.81;;;22.75;49.87
19510;BME280;9896;42.486;26.506;2022-07-21T06:13:41;99729.25;;;22.56;49.84
19510;BME280;9896;42.486;26.506;2022-07-21T06:16:07;99728.53;;;22.74;50.28
19510;BME280;9896;42.486;26.506;2022-07-21T06:18:33;99729.50;;;22.83;49.67
19510;BME280;9896;42.486;26.506;2022-07-21T06:20:59;99724.59;;;22.85;50.10
19510;BME280;9896;42.486;26.506;2022-07-21T06:23:25;99722.97;;;23.03;49.80
19510;BME280;9896;42.486;26.506;2022-07-21T06:25:52;99720.25;;;23.27;48.84
19510;BME280;9896;42.486;26.506;2022-07-21T06:28:18;99721.16;;;23.78;48.30
19510;BME280;9896;42.486;26.506;2022-07-21T06:30:44;99720.44;;;24.24;46.45
19510;BME280;9896;42.486;26.506;2022-07-21T06:33:09;99722.19;;;24.47;46.05
19510;BME280;9896;42.486;26.506;2022-07-21T06:35:35;99716.88;;;24.69;45.84
19510;BME280;9896;42.486;26.506;2022-07-21T06:38:01;99714.75;;;24.93;45.62
19510;BME280;9896;42.486;26.506;2022-07-21T06:40:26;99709.97;;;25.13;44.99
19510;BME280;9896;42.486;26.506;2022-07-21T06:42:52;99697.25;;;25.30;44.81
19510;BME280;9896;42.486;26.506;2022-07-21T06:45:18;99712.44;;;25.50;44.45
19510;BME280;9896;42.486;26.506;2022-07-21T06:47:43;99709.41;;;25.87;43.32
19510;BME280;9896;42.486;26.506;2022-07-21T06:50:09;99713.50;;;25.99;42.85
19510;BME280;9896;42.486;26.506;2022-07-21T06:52:35;99716.97;;;26.13;42.63
19510;BME280;9896;42.486;26.506;2022-07-21T06:55:03;99717.00;;;26.35;42.25
19510;BME280;9896;42.486;26.506;2022-07-21T06:57:28;99708.94;;;26.39;42.50
19510;BME280;9896;42.486;26.506;2022-07-21T06:59:54;99709.91;;;26.73;41.46
19510;BME280;9896;42.486;26.506;2022-07-21T07:02:19;99709.09;;;27.12;40.67
19510;BME280;9896;42.486;26.506;2022-07-21T07:04:45;99703.28;;;27.31;39.43
19510;BME280;9896;42.486;26.506;2022-07-21T07:07:10;99712.34;;;27.32;37.96
19510;BME280;9896;42.486;26.506;2022-07-21T07:09:36;99709.97;;;27.47;38.26
19510;BME280;9896;42.486;26.506;2022-07-21T07:12:02;99710.16;;;27.77;37.58
19510;BME280;9896;42.486;26.506;2022-07-21T07:14:32;99709.03;;;27.86;36.61
19510;BME280;9896;42.486;26.506;2022-07-21T07:16:58;99708.53;;;27.84;36.58
19510;BME280;9896;42.486;26.506;2022-07-21T07:19:24;99699.78;;;28.08;36.58
19510;BME280;9896;42.486;26.506;2022-07-21T07:21:50;99705.63;;;28.15;36.11
19510;BME280;9896;42.486;26.506;2022-07-21T07:24:16;99711.59;;;28.26;35.31
19510;BME280;9896;42.486;26.506;2022-07-21T07:26:41;99703.28;;;28.34;35.27
19510;BME280;9896;42.486;26.506;2022-07-21T07:29:07;99702.88;;;28.61;34.77
19510;BME280;9896;42.486;26.506;2022-07-21T07:31:34;99697.94;;;28.84;34.34
19510;BME280;9896;42.486;26.506;2022-07-21T07:34:00;99696.06;;;28.59;34.82
19510;BME280;9896;42.486;26.506;2022-07-21T07:36:26;99696.59;;;28.90;34.31
19510;BME280;9896;42.486;26.506;2022-07-21T07:38:53;99694.72;;;28.74;34.22
19510;BME280;9896;42.486;26.506;2022-07-21T07:41:20;99698.00;;;29.05;33.86
19510;BME280;9896;42.486;26.506;2022-07-21T07:43:46;99694.38;;;29.42;32.50
19510;BME280;9896;42.486;26.506;2022-07-21T07:46:12;99695.53;;;29.62;32.60
19510;BME280;9896;42.486;26.506;2022-07-21T07:48:39;99709.72;;;29.31;33.81
19510;BME280;9896;42.486;26.506;2022-07-21T07:51:07;99700.97;;;29.50;32.88
19510;BME280;9896;42.486;26.506;2022-07-21T07:53:33;99704.69;;;29.25;32.51
19510;BME280;9896;42.486;26.506;2022-07-21T07:55:59;99698.97;;;29.38;33.04
19510;BME280;9896;42.486;26.506;2022-07-21T07:58:25;99699.16;;;29.54;31.87
19510;BME280;9896;42.486;26.506;2022-07-21T08:00:50;99710.78;;;29.39;32.11
19510;BME280;9896;42.486;26.506;2022-07-21T08:03:16;99717.13;;;29.39;32.90
19510;BME280;9896;42.486;26.506;2022-07-21T08:05:42;99702.75;;;29.54;32.46
19510;BME280;9896;42.486;26.506;2022-07-21T08:08:07;99697.78;;;29.60;32.79
19510;BME280;9896;42.486;26.506;2022-07-21T08:10:33;99697.53;;;29.74;32.87
19510;BME280;9896;42.486;26.506;2022-07-21T08:12:59;99691.44;;;29.80;33.05
19510;BME280;9896;42.486;26.506;2022-07-21T08:15:24;99694.03;;;29.44;33.71
19510;BME280;9896;42.486;26.506;2022-07-21T08:17:50;99686.53;;;29.44;33.55
19510;BME280;9896;42.486;26.506;2022-07-21T08:20:16;99694.22;;;29.60;32.77
19510;BME280;9896;42.486;26.506;2022-07-21T08:22:42;99687.28;;;29.95;32.31
19510;BME280;9896;42.486;26.506;2022-07-21T08:25:07;99684.97;;;29.97;32.59
19510;BME280;9896;42.486;26.506;2022-07-21T08:27:33;99680.06;;;29.82;32.90
19510;BME280;9896;42.486;26.506;2022-07-21T08:29:58;99668.91;;;30.11;32.09
19510;BME280;9896;42.486;26.506;2022-07-21T08:32:24;99670.88;;;30.80;31.72
19510;BME280;9896;42.486;26.506;2022-07-21T08:34:50;99671.09;;;30.87;31.36
19510;BME280;9896;42.486;26.506;2022-07-21T08:37:17;99668.94;;;31.05;31.11
19510;BME280;9896;42.486;26.506;2022-07-21T08:39:44;99669.03;;;30.72;31.46
19510;BME280;9896;42.486;26.506;2022-07-21T08:42:10;99667.63;;;30.78;31.61
19510;BME280;9896;42.486;26.506;2022-07-21T08:44:36;99665.31;;;30.43;32.28
19510;BME280;9896;42.486;26.506;2022-07-21T08:47:01;99663.81;;;30.13;32.00
19510;BME280;9896;42.486;26.506;2022-07-21T08:49:29;99662.22;;;31.18;30.19
19510;BME280;9896;42.486;26.506;2022-07-21T08:51:56;99659.66;;;31.93;29.67
19510;BME280;9896;42.486;26.506;2022-07-21T08:54:21;99663.59;;;30.75;31.47
19510;BME280;9896;42.486;26.506;2022-07-21T08:56:48;99664.19;;;30.69;31.69
19510;BME280;9896;42.486;26.506;2022-07-21T08:59:13;99648.34;;;31.30;30.15
19510;BME280;9896;42.486;26.506;2022-07-21T09:01:39;99661.16;;;30.86;31.13
19510;BME280;9896;42.486;26.506;2022-07-21T09:04:21;99655.81;;;31.42;30.84
19510;BME280;9896;42.486;26.506;2022-07-21T09:07:13;99655.00;;;32.09;29.66
19510;BME280;9896;42.486;26.506;2022-07-21T09:09:38;99656.44;;;31.51;29.34
19510;BME280;9896;42.486;26.506;2022-07-21T09:12:05;99652.75;;;31.71;28.99
19510;BME280;9896;42.486;26.506;2022-07-21T09:14:33;99645.72;;;31.21;29.69
19510;BME280;9896;42.486;26.506;2022-07-21T09:17:01;99639.72;;;31.59;28.97
19510;BME280;9896;42.486;26.506;2022-07-21T09:19:33;99647.09;;;31.95;28.27
19510;BME280;9896;42.486;26.506;2022-07-21T09:22:03;99639.53;;;31.40;29.44
19510;BME280;9896;42.486;26.506;2022-07-21T09:24:36;99643.25;;;31.72;28.71
19510;BME280;9896;42.486;26.506;2022-07-21T09:27:25;99628.88;;;31.82;28.56
19510;BME280;9896;42.486;26.506;2022-07-21T09:30:00;99637.41;;;32.05;29.09
19510;BME280;9896;42.486;26.506;2022-07-21T09:32:30;99637.63;;;31.84;29.82
19510;BME280;9896;42.486;26.506;2022-07-21T09:37:26;99630.34;;;33.17;27.70
19510;BME280;9896;42.486;26.506;2022-07-21T09:39:54;99627.44;;;33.29;26.31
19510;BME280;9896;42.486;26.506;2022-07-21T09:42:29;99634.88;;;32.59;27.84
19510;BME280;9896;42.486;26.506;2022-07-21T09:45:00;99639.72;;;32.78;28.04
19510;BME280;9896;42.486;26.506;2022-07-21T09:47:28;99631.09;;;32.20;28.66
19510;BME280;9896;42.486;26.506;2022-07-21T09:49:55;99639.16;;;32.41;28.64
19510;BME280;9896;42.486;26.506;2022-07-21T09:55:04;99627.72;;;32.42;28.31
19510;BME280;9896;42.486;26.506;2022-07-21T09:57:31;99622.34;;;32.81;28.20
19510;BME280;9896;42.486;26.506;2022-07-21T09:59:57;99624.59;;;33.26;28.05
19510;BME280;9896;42.486;26.506;2022-07-21T10:02:25;99633.50;;;33.35;27.52
19510;BME280;9896;42.486;26.506;2022-07-21T10:04:57;99635.28;;;33.08;27.23
19510;BME280;9896;42.486;26.506;2022-07-21T10:07:25;99628.84;;;33.04;27.48
19510;BME280;9896;42.486;26.506;2022-07-21T10:09:51;99619.84;;;33.10;27.35
19510;BME280;9896;42.486;26.506;2022-07-21T10:12:16;99630.41;;;32.39;28.30
19510;BME280;9896;42.486;26.506;2022-07-21T10:14:43;99628.75;;;33.00;27.36
19510;BME280;9896;42.486;26.506;2022-07-21T10:17:09;99626.16;;;34.03;26.45
19510;BME280;9896;42.486;26.506;2022-07-21T10:19:42;99621.91;;;33.87;26.55
19510;BME280;9896;42.486;26.506;2022-07-21T10:22:22;99609.63;;;33.69;26.98
19510;BME280;9896;42.486;26.506;2022-07-21T10:24:55;99608.81;;;33.68;26.77
19510;BME280;9896;42.486;26.506;2022-07-21T10:27:20;99616.09;;;32.68;28.17
19510;BME280;9896;42.486;26.506;2022-07-21T10:30:01;99597.97;;;33.25;27.04
19510;BME280;9896;42.486;26.506;2022-07-21T10:32:37;99603.28;;;33.14;28.00
19510;BME280;9896;42.486;26.506;2022-07-21T10:35:30;99595.53;;;33.42;26.84
19510;BME280;9896;42.486;26.506;2022-07-21T10:37:57;99594.72;;;34.22;25.45
19510;BME280;9896;42.486;26.506;2022-07-21T10:47:54;99592.56;;;33.70;26.64
19510;BME280;9896;42.486;26.506;2022-07-21T10:50:31;99594.84;;;33.87;25.99
19510;BME280;9896;42.486;26.506;2022-07-21T10:53:04;99590.22;;;34.63;25.53
19510;BME280;9896;42.486;26.506;2022-07-21T10:55:45;99590.28;;;33.76;26.43
19510;BME280;9896;42.486;26.506;2022-07-21T11:03:37;99577.44;;;34.85;25.05
19510;BME280;9896;42.486;26.506;2022-07-21T11:06:12;99576.72;;;35.18;24.88
19510;BME280;9896;42.486;26.506;2022-07-21T11:08:40;99574.56;;;34.29;25.27
19510;BME280;9896;42.486;26.506;2022-07-21T11:14:13;99580.84;;;34.48;25.89
19510;BME280;9896;42.486;26.506;2022-07-21T11:19:34;99586.91;;;34.54;25.32
19510;BME280;9896;42.486;26.506;2022-07-21T11:24:46;99570.50;;;35.02;24.39
19510;BME280;9896;42.486;26.506;2022-07-21T11:27:15;99567.59;;;34.65;24.68
19510;BME280;9896;42.486;26.506;2022-07-21T11:29:43;99558.13;;;34.69;25.53
19510;BME280;9896;42.486;26.506;2022-07-21T11:32:10;99569.81;;;35.38;24.47
19510;BME280;9896;42.486;26.506;2022-07-21T11:34:57;99556.59;;;35.31;24.11
19510;BME280;9896;42.486;26.506;2022-07-21T11:37:34;99561.88;;;35.40;24.77
19510;BME280;9896;42.486;26.506;2022-07-21T11:40:01;99566.63;;;34.80;25.35
19510;BME280;9896;42.486;26.506;2022-07-21T11:42:28;99552.69;;;34.08;26.45
19510;BME280;9896;42.486;26.506;2022-07-21T11:44:56;99561.44;;;34.78;25.39
19510;BME280;9896;42.486;26.506;2022-07-21T11:47:23;99560.22;;;34.76;25.68
19510;BME280;9896;42.486;26.506;2022-07-21T11:49:58;99551.03;;;35.65;24.48
19510;BME280;9896;42.486;26.506;2022-07-21T11:52:32;99553.28;;;35.22;24.77
19510;BME280;9896;42.486;26.506;2022-07-21T11:54:59;99552.88;;;34.94;25.32
19510;BME280;9896;42.486;26.506;2022-07-21T11:57:26;99548.22;;;35.02;25.17
19510;BME280;9896;42.486;26.506;2022-07-21T11:59:53;99535.72;;;35.18;24.93
19510;BME280;9896;42.486;26.506;2022-07-21T12:02:23;99531.50;;;35.02;24.48
19510;BME280;9896;42.486;26.506;2022-07-21T12:04:58;99546.22;;;34.00;26.87
19510;BME280;9896;42.486;26.506;2022-07-21T12:09:57;99541.63;;;34.61;25.37
19510;BME280;9896;42.486;26.506;2022-07-21T12:12:31;99524.59;;;35.22;24.50
19510;BME280;9896;42.486;26.506;2022-07-21T12:14:58;99531.16;;;34.50;25.22
19510;BME280;9896;42.486;26.506;2022-07-21T12:17:36;99519.97;;;35.66;24.55
19510;BME280;9896;42.486;26.506;2022-07-21T12:20:03;99521.81;;;35.55;24.80
19510;BME280;9896;42.486;26.506;2022-07-21T12:22:36;99524.00;;;35.39;24.51
19510;BME280;9896;42.486;26.506;2022-07-21T12:25:02;99517.00;;;35.89;24.29
19510;BME280;9896;42.486;26.506;2022-07-21T12:27:28;99524.00;;;36.13;23.84
19510;BME280;9896;42.486;26.506;2022-07-21T12:29:53;99514.72;;;36.02;23.91
19510;BME280;9896;42.486;26.506;2022-07-21T12:32:39;99519.81;;;35.93;24.06
19510;BME280;9896;42.486;26.506;2022-07-21T12:35:05;99520.66;;;35.60;24.22
19510;BME280;9896;42.486;26.506;2022-07-21T12:40:25;99508.56;;;36.88;23.04
19510;BME280;9896;42.486;26.506;2022-07-21T12:42:51;99508.03;;;35.69;24.71
19510;BME280;9896;42.486;26.506;2022-07-21T12:45:19;99510.13;;;35.09;24.71
19510;BME280;9896;42.486;26.506;2022-07-21T12:48:07;99510.25;;;35.20;25.13
19510;BME280;9896;42.486;26.506;2022-07-21T12:50:33;99498.25;;;35.16;24.75
19510;BME280;9896;42.486;26.506;2022-07-21T12:52:59;99503.72;;;35.09;25.42
19510;BME280;9896;42.486;26.506;2022-07-21T12:55:24;99509.19;;;35.65;24.50
19510;BME280;9896;42.486;26.506;2022-07-21T12:57:50;99504.28;;;37.08;22.58
19510;BME280;9896;42.486;26.506;2022-07-21T13:00:16;99500.25;;;35.89;23.80
19510;BME280;9896;42.486;26.506;2022-07-21T13:02:53;99501.03;;;35.86;23.83
19510;BME280;9896;42.486;26.506;2022-07-21T13:05:20;99498.06;;;35.68;24.27
19510;BME280;9896;42.486;26.506;2022-07-21T13:07:45;99502.97;;;35.45;24.39
19510;BME280;9896;42.486;26.506;2022-07-21T13:10:11;99503.22;;;34.43;26.24
19510;BME280;9896;42.486;26.506;2022-07-21T13:12:36;99497.13;;;35.57;24.82
19510;BME280;9896;42.486;26.506;2022-07-21T13:15:03;99488.69;;;36.38;23.74
19510;BME280;9896;42.486;26.506;2022-07-21T13:17:30;99500.13;;;36.19;23.88
19510;BME280;9896;42.486;26.506;2022-07-21T13:19:55;99497.53;;;35.59;24.51
19510;BME280;9896;42.486;26.506;2022-07-21T13:22:21;99509.25;;;34.75;25.23
19510;BME280;9896;42.486;26.506;2022-07-21T13:24:46;99513.38;;;34.59;25.75
19510;BME280;9896;42.486;26.506;2022-07-21T13:27:14;99508.13;;;34.27;26.42
19510;BME280;9896;42.486;26.506;2022-07-21T13:29:39;99515.25;;;34.02;26.41
19510;BME280;9896;42.486;26.506;2022-07-21T13:32:06;99507.38;;;34.07;26.76
19510;BME280;9896;42.486;26.506;2022-07-21T13:34:33;99502.56;;;33.40;27.42
19510;BME280;9896;42.486;26.506;2022-07-21T13:36:58;99505.50;;;34.38;26.53